sensor_id;sensor_type;location;lat;lon;timestamp;temperature;humidity
16287;DHT22;8251;53.568;10.018;2022-08-21T00:00:28;21.70;65.40
16287;DHT22;8251;53.568;10.018;2022-08-21T00:02:59;21.70;65.20
16287;DHT22;8251;53.568;10.018;2022-08-21T00:05:27;21.70;65.30
16287;DHT22;8251;53.568;10.018;2022-08-21T00:07:56;21.70;65.10
16287;DHT22;8251;53.568;10.018;2022-08-21T00:10:24;21.70;65.20
16287;DHT22;8251;53.568;10.018;2022-08-21T00:12:51;21.70;65.40
16287;DHT22;8251;53.568;10.018;2022-08-21T00:15:24;21.70;65.70
16287;DHT22;8251;53.568;10.018;2022-08-21T00:17:52;21.60;65.50
16287;DHT22;8251;53.568;10.018;2022-08-21T00:20:19;21.60;65.70
16287;DHT22;8251;53.568;10.018;2022-08-21T00:22:46;21.50;65.90
16287;DHT22;8251;53.568;10.018;2022-08-21T00:25:15;21.50;66.00
16287;DHT22;8251;53.568;10.018;2022-08-21T00:27:43;21.50;66.10
16287;DHT22;8251;53.568;10.018;2022-08-21T00:30:14;21.50;66.30
16287;DHT22;8251;53.568;10.018;2022-08-21T00:32:42;21.50;66.80
16287;DHT22;8251;53.568;10.018;2022-08-21T00:35:12;21.40;67.10
16287;DHT22;8251;53.568;10.018;2022-08-21T00:37:39;21.40;67.50
16287;DHT22;8251;53.568;10.018;2022-08-21T00:40:10;21.40;67.70
16287;DHT22;8251;53.568;10.018;2022-08-21T00:42:39;21.40;67.90
16287;DHT22;8251;53.568;10.018;2022-08-21T00:45:07;21.30;68.10
16287;DHT22;8251;53.568;10.018;2022-08-21T00:47:35;21.30;68.30
16287;DHT22;8251;53.568;10.018;2022-08-21T00:50:04;21.30;68.40
16287;DHT22;8251;53.568;10.018;2022-08-21T00:52:34;21.30;68.40
16287;DHT22;8251;53.568;10.018;2022-08-21T00:55:07;21.30;68.50
16287;DHT22;8251;53.568;10.018;2022-08-21T00:57:39;21.30;68.50
16287;DHT22;8251;53.568;10.018;2022-08-21T01:00:10;21.20;68.80
16287;DHT22;8251;53.568;10.018;2022-08-21T01:02:38;21.20;69.00
16287;DHT22;8251;53.568;10.018;2022-08-21T01:05:06;21.20;69.20
16287;DHT22;8251;53.568;10.018;2022-08-21T01:07:33;21.20;69.40
16287;DHT22;8251;53.568;10.018;2022-08-21T01:10:00;21.20;69.60
16287;DHT22;8251;53.568;10.018;2022-08-21T01:12:27;21.20;69.60
16287;DHT22;8251;53.568;10.018;2022-08-21T01:14:56;21.20;69.60
16287;DHT22;8251;53.568;10.018;2022-08-21T01:17:25;21.20;69.70
16287;DHT22;8251;53.568;10.018;2022-08-21T01:19:56;21.10;69.80
16287;DHT22;8251;53.568;10.018;2022-08-21T01:22:25;21.20;69.90
16287;DHT22;8251;53.568;10.018;2022-08-21T01:24:52;21.10;70.00
16287;DHT22;8251;53.568;10.018;2022-08-21T01:27:19;21.10;70.00
16287;DHT22;8251;53.568;10.018;2022-08-21T01:29:53;21.10;70.30
16287;DHT22;8251;53.568;10.018;2022-08-21T01:32:25;21.10;70.40
16287;DHT22;8251;53.568;10.018;2022-08-21T01:34:55;21.10;70.50
16287;DHT22;8251;53.568;10.018;2022-08-21T01:37:22;21.10;70.50
16287;DHT22;8251;53.568;10.018;2022-08-21T01:39:50;21.10;70.50
16287;DHT22;8251;53.568;10.018;2022-08-21T01:42:19;21.10;70.50
16287;DHT22;8251;53.568;10.018;2022-08-21T01:44:46;21.10;70.60
16287;DHT22;8251;53.568;10.018;2022-08-21T01:47:14;21.10;70.70
16287;DHT22;8251;53.568;10.018;2022-08-21T01:49:43;21.10;70.70
16287;DHT22;8251;53.568;10.018;2022-08-21T01:52:11;21.10;70.70
16287;DHT22;8251;53.568;10.018;2022-08-21T01:54:41;21.10;70.70
16287;DHT22;8251;53.568;10.018;2022-08-21T01:57:11;21.10;70.90
16287;DHT22;8251;53.568;10.018;2022-08-21T01:59:39;21.10;70.90
16287;DHT22;8251;53.568;10.018;2022-08-21T02:02:06;21.10;70.90
16287;DHT22;8251;53.568;10.018;2022-08-21T02:04:33;21.20;71.10
16287;DHT22;8251;53.568;10.018;2022-08-21T02:07:04;21.20;70.60
16287;DHT22;8251;53.568;10.018;2022-08-21T02:09:31;21.20;70.20
16287;DHT22;8251;53.568;10.018;2022-08-21T02:11:59;21.20;70.00
16287;DHT22;8251;53.568;10.018;2022-08-21T02:14:27;21.20;70.00
16287;DHT22;8251;53.568;10.018;2022-08-21T02:16:54;21.20;69.70
16287;DHT22;8251;53.568;10.018;2022-08-21T02:19:22;21.20;69.60
16287;DHT22;8251;53.568;10.018;2022-08-21T02:21:49;21.20;69.40
16287;DHT22;8251;53.568;10.018;2022-08-21T02:24:16;21.20;69.30
16287;DHT22;8251;53.568;10.018;2022-08-21T02:26:43;21.20;69.40
16287;DHT22;8251;53.568;10.018;2022-08-21T02:29:10;21.10;69.50
16287;DHT22;8251;53.568;10.018;2022-08-21T02:31:38;21.10;69.70
16287;DHT22;8251;53.568;10.018;2022-08-21T02:34:05;21.10;70.00
16287;DHT22;8251;53.568;10.018;2022-08-21T02:36:32;21.00;70.10
16287;DHT22;8251;53.568;10.018;2022-08-21T02:38:59;21.00;70.60
16287;DHT22;8251;53.568;10.018;2022-08-21T02:41:26;21.00;71.90
16287;DHT22;8251;53.568;10.018;2022-08-21T02:43:53;20.90;71.30
16287;DHT22;8251;53.568;10.018;2022-08-21T02:46:20;20.90;71.80
16287;DHT22;8251;53.568;10.018;2022-08-21T02:48:49;20.80;72.20
16287;DHT22;8251;53.568;10.018;2022-08-21T02:51:18;20.80;72.60
16287;DHT22;8251;53.568;10.018;2022-08-21T02:53:46;20.70;73.00
16287;DHT22;8251;53.568;10.018;2022-08-21T02:56:15;20.70;73.20
16287;DHT22;8251;53.568;10.018;2022-08-21T02:58:50;20.70;73.30
16287;DHT22;8251;53.568;10.018;2022-08-21T03:01:25;20.70;73.50
16287;DHT22;8251;53.568;10.018;2022-08-21T03:04:02;20.70;73.60
16287;DHT22;8251;53.568;10.018;2022-08-21T03:06:29;20.60;73.60
16287;DHT22;8251;53.568;10.018;2022-08-21T03:08:56;20.60;73.70
16287;DHT22;8251;53.568;10.018;2022-08-21T03:11:23;20.60;73.70
16287;DHT22;8251;53.568;10.018;2022-08-21T03:13:52;20.50;73.70
16287;DHT22;8251;53.568;10.018;2022-08-21T03:16:19;20.50;73.90
16287;DHT22;8251;53.568;10.018;2022-08-21T03:18:46;20.50;73.90
16287;DHT22;8251;53.568;10.018;2022-08-21T03:21:14;20.40;73.90
16287;DHT22;8251;53.568;10.018;2022-08-21T03:23:41;20.40;73.90
16287;DHT22;8251;53.568;10.018;2022-08-21T03:26:08;20.40;73.90
16287;DHT22;8251;53.568;10.018;2022-08-21T03:28:36;20.40;73.80
16287;DHT22;8251;53.568;10.018;2022-08-21T03:31:03;20.40;73.80
16287;DHT22;8251;53.568;10.018;2022-08-21T03:33:31;20.40;73.80
16287;DHT22;8251;53.568;10.018;2022-08-21T03:36:00;20.30;73.70
16287;DHT22;8251;53.568;10.018;2022-08-21T03:38:30;20.30;73.70
16287;DHT22;8251;53.568;10.018;2022-08-21T03:40:58;20.30;73.70
16287;DHT22;8251;53.568;10.018;2022-08-21T03:43:26;20.30;73.70
16287;DHT22;8251;53.568;10.018;2022-08-21T03:45:53;20.30;73.70
16287;DHT22;8251;53.568;10.018;2022-08-21T03:48:20;20.20;73.70
16287;DHT22;8251;53.568;10.018;2022-08-21T03:50:48;20.20;73.70
16287;DHT22;8251;53.568;10.018;2022-08-21T03:53:16;20.00;73.70
16287;DHT22;8251;53.568;10.018;2022-08-21T03:56:10;20.10;73.90
16287;DHT22;8251;53.568;10.018;2022-08-21T03:58:38;20.10;74.10
16287;DHT22;8251;53.568;10.018;2022-08-21T04:01:06;20.10;74.20
16287;DHT22;8251;53.568;10.018;2022-08-21T04:03:35;20.10;74.20
16287;DHT22;8251;53.568;10.018;2022-08-21T04:06:03;20.00;74.10
16287;DHT22;8251;53.568;10.018;2022-08-21T04:08:30;20.00;74.30
16287;DHT22;8251;53.568;10.018;2022-08-21T04:10:58;20.00;74.40
16287;DHT22;8251;53.568;10.018;2022-08-21T04:13:27;19.90;74.50
16287;DHT22;8251;53.568;10.018;2022-08-21T04:15:54;19.90;74.60
16287;DHT22;8251;53.568;10.018;2022-08-21T04:18:24;19.90;74.70
16287;DHT22;8251;53.568;10.018;2022-08-21T04:20:52;19.90;74.90
16287;DHT22;8251;53.568;10.018;2022-08-21T04:23:20;19.80;75.00
16287;DHT22;8251;53.568;10.018;2022-08-21T04:25:48;19.80;75.00
16287;DHT22;8251;53.568;10.018;2022-08-21T04:28:15;19.80;75.20
16287;DHT22;8251;53.568;10.018;2022-08-21T04:30:43;19.80;75.30
16287;DHT22;8251;53.568;10.018;2022-08-21T04:33:10;19.70;75.20
16287;DHT22;8251;53.568;10.018;2022-08-21T04:35:37;19.70;75.40
16287;DHT22;8251;53.568;10.018;2022-08-21T04:38:04;19.70;75.40
16287;DHT22;8251;53.568;10.018;2022-08-21T04:40:31;19.70;75.60
16287;DHT22;8251;53.568;10.018;2022-08-21T04:43:01;19.80;75.60
16287;DHT22;8251;53.568;10.018;2022-08-21T04:45:31;19.80;75.70
16287;DHT22;8251;53.568;10.018;2022-08-21T04:48:03;19.80;75.80
16287;DHT22;8251;53.568;10.018;2022-08-21T04:50:36;19.80;75.70
16287;DHT22;8251;53.568;10.018;2022-08-21T04:53:05;19.80;75.50
16287;DHT22;8251;53.568;10.018;2022-08-21T04:55:34;19.80;75.60
16287;DHT22;8251;53.568;10.018;2022-08-21T04:58:04;19.80;75.50
16287;DHT22;8251;53.568;10.018;2022-08-21T05:00:32;19.90;75.50
16287;DHT22;8251;53.568;10.018;2022-08-21T05:03:01;19.90;75.50
16287;DHT22;8251;53.568;10.018;2022-08-21T05:05:30;19.90;75.40
16287;DHT22;8251;53.568;10.018;2022-08-21T05:07:59;19.90;75.50
16287;DHT22;8251;53.568;10.018;2022-08-21T05:10:27;19.90;75.50
16287;DHT22;8251;53.568;10.018;2022-08-21T05:12:55;19.90;75.50
16287;DHT22;8251;53.568;10.018;2022-08-21T05:15:22;20.00;75.30
16287;DHT22;8251;53.568;10.018;2022-08-21T05:17:49;20.00;75.10
16287;DHT22;8251;53.568;10.018;2022-08-21T05:20:18;20.00;74.80
16287;DHT22;8251;53.568;10.018;2022-08-21T05:22:45;20.00;74.90
16287;DHT22;8251;53.568;10.018;2022-08-21T05:25:13;20.10;74.70
16287;DHT22;8251;53.568;10.018;2022-08-21T05:27:40;20.20;74.80
16287;DHT22;8251;53.568;10.018;2022-08-21T05:30:08;20.20;74.70
16287;DHT22;8251;53.568;10.018;2022-08-21T05:32:36;20.30;75.30
16287;DHT22;8251;53.568;10.018;2022-08-21T05:35:04;20.30;74.10
16287;DHT22;8251;53.568;10.018;2022-08-21T05:37:33;20.30;74.20
16287;DHT22;8251;53.568;10.018;2022-08-21T05:39:59;20.40;74.10
16287;DHT22;8251;53.568;10.018;2022-08-21T05:42:26;20.50;73.80
16287;DHT22;8251;53.568;10.018;2022-08-21T05:44:54;20.50;73.50
16287;DHT22;8251;53.568;10.018;2022-08-21T05:47:20;20.50;73.00
16287;DHT22;8251;53.568;10.018;2022-08-21T05:49:51;20.50;72.80
16287;DHT22;8251;53.568;10.018;2022-08-21T05:52:20;20.60;72.60
16287;DHT22;8251;53.568;10.018;2022-08-21T05:54:51;20.60;72.20
16287;DHT22;8251;53.568;10.018;2022-08-21T05:57:20;20.70;72.00
16287;DHT22;8251;53.568;10.018;2022-08-21T05:59:47;20.70;71.70
16287;DHT22;8251;53.568;10.018;2022-08-21T06:02:14;20.70;71.70
16287;DHT22;8251;53.568;10.018;2022-08-21T06:04:43;20.70;71.20
16287;DHT22;8251;53.568;10.018;2022-08-21T06:07:10;20.70;71.50
16287;DHT22;8251;53.568;10.018;2022-08-21T06:09:37;20.70;71.20
16287;DHT22;8251;53.568;10.018;2022-08-21T06:12:07;20.70;70.80
16287;DHT22;8251;53.568;10.018;2022-08-21T06:14:34;20.80;71.10
16287;DHT22;8251;53.568;10.018;2022-08-21T06:17:02;20.90;71.10
16287;DHT22;8251;53.568;10.018;2022-08-21T06:19:30;21.00;70.90
16287;DHT22;8251;53.568;10.018;2022-08-21T06:21:57;21.00;70.20
16287;DHT22;8251;53.568;10.018;2022-08-21T06:24:25;21.10;70.20
16287;DHT22;8251;53.568;10.018;2022-08-21T06:26:55;21.10;70.00
16287;DHT22;8251;53.568;10.018;2022-08-21T06:29:23;21.20;70.30
16287;DHT22;8251;53.568;10.018;2022-08-21T06:31:51;21.20;69.90
16287;DHT22;8251;53.568;10.018;2022-08-21T06:34:18;21.20;70.00
16287;DHT22;8251;53.568;10.018;2022-08-21T06:36:45;21.20;69.80
16287;DHT22;8251;53.568;10.018;2022-08-21T06:39:12;21.30;69.10
16287;DHT22;8251;53.568;10.018;2022-08-21T06:41:40;21.40;68.80
16287;DHT22;8251;53.568;10.018;2022-08-21T06:44:06;21.40;67.80
16287;DHT22;8251;53.568;10.018;2022-08-21T06:46:35;21.60;67.80
16287;DHT22;8251;53.568;10.018;2022-08-21T06:49:02;22.00;67.10
16287;DHT22;8251;53.568;10.018;2022-08-21T06:51:30;22.20;66.00
16287;DHT22;8251;53.568;10.018;2022-08-21T06:53:57;22.40;65.30
16287;DHT22;8251;53.568;10.018;2022-08-21T06:56:24;22.50;64.60
16287;DHT22;8251;53.568;10.018;2022-08-21T06:58:55;22.60;63.80
16287;DHT22;8251;53.568;10.018;2022-08-21T07:01:28;22.70;62.60
16287;DHT22;8251;53.568;10.018;2022-08-21T07:03:59;22.70;62.20
16287;DHT22;8251;53.568;10.018;2022-08-21T07:06:26;22.60;61.40
16287;DHT22;8251;53.568;10.018;2022-08-21T07:08:53;22.60;62.10
16287;DHT22;8251;53.568;10.018;2022-08-21T07:11:22;22.60;62.40
16287;DHT22;8251;53.568;10.018;2022-08-21T07:13:50;22.70;62.10
16287;DHT22;8251;53.568;10.018;2022-08-21T07:16:18;22.70;61.50
16287;DHT22;8251;53.568;10.018;2022-08-21T07:18:45;22.80;61.10
16287;DHT22;8251;53.568;10.018;2022-08-21T07:21:15;22.80;59.90
16287;DHT22;8251;53.568;10.018;2022-08-21T07:23:44;23.00;59.60
16287;DHT22;8251;53.568;10.018;2022-08-21T07:26:12;23.20;58.70
16287;DHT22;8251;53.568;10.018;2022-08-21T07:28:39;23.60;58.00
16287;DHT22;8251;53.568;10.018;2022-08-21T07:31:06;24.00;57.20
16287;DHT22;8251;53.568;10.018;2022-08-21T07:33:35;24.50;56.60
16287;DHT22;8251;53.568;10.018;2022-08-21T07:36:03;25.00;56.20
16287;DHT22;8251;53.568;10.018;2022-08-21T07:38:32;25.60;55.90
16287;DHT22;8251;53.568;10.018;2022-08-21T07:41:00;26.20;54.60
16287;DHT22;8251;53.568;10.018;2022-08-21T07:43:28;27.00;53.10
16287;DHT22;8251;53.568;10.018;2022-08-21T07:45:55;27.80;51.40
16287;DHT22;8251;53.568;10.018;2022-08-21T07:48:23;28.50;49.50
16287;DHT22;8251;53.568;10.018;2022-08-21T07:50:50;29.00;48.50
16287;DHT22;8251;53.568;10.018;2022-08-21T07:53:19;29.30;48.10
16287;DHT22;8251;53.568;10.018;2022-08-21T07:55:47;29.70;47.00
16287;DHT22;8251;53.568;10.018;2022-08-21T07:58:14;30.30;46.20
16287;DHT22;8251;53.568;10.018;2022-08-21T08:00:41;30.90;44.50
16287;DHT22;8251;53.568;10.018;2022-08-21T08:03:08;31.60;43.70
16287;DHT22;8251;53.568;10.018;2022-08-21T08:05:35;32.20;42.00
16287;DHT22;8251;53.568;10.018;2022-08-21T08:08:04;32.80;41.40
16287;DHT22;8251;53.568;10.018;2022-08-21T08:10:32;33.30;40.80
16287;DHT22;8251;53.568;10.018;2022-08-21T08:13:01;33.50;40.30
16287;DHT22;8251;53.568;10.018;2022-08-21T08:15:31;33.60;39.70
16287;DHT22;8251;53.568;10.018;2022-08-21T08:18:00;33.50;40.50
16287;DHT22;8251;53.568;10.018;2022-08-21T08:20:34;33.30;39.90
16287;DHT22;8251;53.568;10.018;2022-08-21T08:23:02;33.10;40.60
16287;DHT22;8251;53.568;10.018;2022-08-21T08:25:31;32.90;41.70
16287;DHT22;8251;53.568;10.018;2022-08-21T08:27:59;32.70;41.60
16287;DHT22;8251;53.568;10.018;2022-08-21T08:30:26;32.50;41.50
16287;DHT22;8251;53.568;10.018;2022-08-21T08:32:53;32.40;42.00
16287;DHT22;8251;53.568;10.018;2022-08-21T08:35:20;32.30;41.70
16287;DHT22;8251;53.568;10.018;2022-08-21T08:37:47;32.30;41.30
16287;DHT22;8251;53.568;10.018;2022-08-21T08:40:18;32.30;41.40
16287;DHT22;8251;53.568;10.018;2022-08-21T08:42:47;32.40;41.50
16287;DHT22;8251;53.568;10.018;2022-08-21T08:45:21;32.40;41.90
16287;DHT22;8251;53.568;10.018;2022-08-21T08:47:52;32.60;42.10
16287;DHT22;8251;53.568;10.018;2022-08-21T08:50:28;32.70;42.40
16287;DHT22;8251;53.568;10.018;2022-08-21T08:53:00;32.80;42.80
16287;DHT22;8251;53.568;10.018;2022-08-21T08:55:33;32.90;42.50
16287;DHT22;8251;53.568;10.018;2022-08-21T08:58:00;33.10;41.70
16287;DHT22;8251;53.568;10.018;2022-08-21T09:00:31;33.30;42.40
16287;DHT22;8251;53.568;10.018;2022-08-21T09:03:01;33.50;41.90
16287;DHT22;8251;53.568;10.018;2022-08-21T09:05:38;33.70;41.60
16287;DHT22;8251;53.568;10.018;2022-08-21T09:08:27;33.90;41.10
16287;DHT22;8251;53.568;10.018;2022-08-21T09:11:02;34.30;40.70
16287;DHT22;8251;53.568;10.018;2022-08-21T09:13:38;34.60;39.40
16287;DHT22;8251;53.568;10.018;2022-08-21T09:16:15;34.80;40.10
16287;DHT22;8251;53.568;10.018;2022-08-21T09:18:51;35.00;39.50
16287;DHT22;8251;53.568;10.018;2022-08-21T09:21:24;35.20;38.70
16287;DHT22;8251;53.568;10.018;2022-08-21T09:24:00;35.30;38.20
16287;DHT22;8251;53.568;10.018;2022-08-21T09:26:31;35.40;37.50
16287;DHT22;8251;53.568;10.018;2022-08-21T09:29:01;35.30;37.60
16287;DHT22;8251;53.568;10.018;2022-08-21T09:31:32;35.50;37.60
16287;DHT22;8251;53.568;10.018;2022-08-21T09:34:00;35.70;37.30
16287;DHT22;8251;53.568;10.018;2022-08-21T09:36:35;35.80;38.00
16287;DHT22;8251;53.568;10.018;2022-08-21T09:39:03;36.00;36.70
16287;DHT22;8251;53.568;10.018;2022-08-21T09:41:33;36.00;36.60
16287;DHT22;8251;53.568;10.018;2022-08-21T09:44:01;36.20;36.80
16287;DHT22;8251;53.568;10.018;2022-08-21T09:46:29;36.30;37.00
16287;DHT22;8251;53.568;10.018;2022-08-21T09:49:00;36.40;37.00
16287;DHT22;8251;53.568;10.018;2022-08-21T09:51:29;36.50;36.70
16287;DHT22;8251;53.568;10.018;2022-08-21T09:54:14;36.50;36.20
16287;DHT22;8251;53.568;10.018;2022-08-21T09:56:53;36.50;36.30
16287;DHT22;8251;53.568;10.018;2022-08-21T09:59:39;36.50;35.50
16287;DHT22;8251;53.568;10.018;2022-08-21T10:02:23;36.50;36.70
16287;DHT22;8251;53.568;10.018;2022-08-21T10:04:51;36.60;36.90
16287;DHT22;8251;53.568;10.018;2022-08-21T10:07:21;36.60;37.20
16287;DHT22;8251;53.568;10.018;2022-08-21T10:09:59;36.60;37.20
16287;DHT22;8251;53.568;10.018;2022-08-21T10:12:31;36.50;36.20
16287;DHT22;8251;53.568;10.018;2022-08-21T10:15:05;36.30;36.40
16287;DHT22;8251;53.568;10.018;2022-08-21T10:17:43;36.20;37.10
16287;DHT22;8251;53.568;10.018;2022-08-21T10:20:16;36.20;37.00
16287;DHT22;8251;53.568;10.018;2022-08-21T10:22:51;36.20;36.30
16287;DHT22;8251;53.568;10.018;2022-08-21T10:25:30;36.10;36.40
16287;DHT22;8251;53.568;10.018;2022-08-21T10:28:05;35.80;37.70
16287;DHT22;8251;53.568;10.018;2022-08-21T10:30:41;35.80;37.60
16287;DHT22;8251;53.568;10.018;2022-08-21T10:33:23;36.00;38.00
16287;DHT22;8251;53.568;10.018;2022-08-21T10:36:03;36.20;38.30
16287;DHT22;8251;53.568;10.018;2022-08-21T10:38:58;36.40;37.30
16287;DHT22;8251;53.568;10.018;2022-08-21T10:41:37;36.40;36.60
16287;DHT22;8251;53.568;10.018;2022-08-21T10:44:17;36.40;35.90
16287;DHT22;8251;53.568;10.018;2022-08-21T10:46:54;36.50;36.10
16287;DHT22;8251;53.568;10.018;2022-08-21T10:49:37;36.60;35.80
16287;DHT22;8251;53.568;10.018;2022-08-21T10:52:27;36.70;36.50
16287;DHT22;8251;53.568;10.018;2022-08-21T10:55:00;36.70;35.40
16287;DHT22;8251;53.568;10.018;2022-08-21T10:57:33;36.80;35.20
16287;DHT22;8251;53.568;10.018;2022-08-21T11:00:05;36.90;35.00
16287;DHT22;8251;53.568;10.018;2022-08-21T11:02:38;37.00;34.30
16287;DHT22;8251;53.568;10.018;2022-08-21T11:05:12;37.00;35.10
16287;DHT22;8251;53.568;10.018;2022-08-21T11:07:47;37.10;34.70
16287;DHT22;8251;53.568;10.018;2022-08-21T11:10:19;37.10;33.60
16287;DHT22;8251;53.568;10.018;2022-08-21T11:12:52;37.10;34.30
16287;DHT22;8251;53.568;10.018;2022-08-21T11:15:29;37.10;34.70
16287;DHT22;8251;53.568;10.018;2022-08-21T11:18:10;37.20;34.40
16287;DHT22;8251;53.568;10.018;2022-08-21T11:20:49;37.10;33.70
16287;DHT22;8251;53.568;10.018;2022-08-21T11:23:23;37.10;33.70
16287;DHT22;8251;53.568;10.018;2022-08-21T11:25:55;37.10;33.80
16287;DHT22;8251;53.568;10.018;2022-08-21T11:28:28;37.10;33.20
16287;DHT22;8251;53.568;10.018;2022-08-21T11:31:05;37.00;32.40
16287;DHT22;8251;53.568;10.018;2022-08-21T11:33:52;37.00;31.90
16287;DHT22;8251;53.568;10.018;2022-08-21T11:36:33;37.00;32.50
16287;DHT22;8251;53.568;10.018;2022-08-21T11:39:10;37.00;33.20
16287;DHT22;8251;53.568;10.018;2022-08-21T11:41:46;37.00;31.50
16287;DHT22;8251;53.568;10.018;2022-08-21T11:44:29;36.80;30.80
16287;DHT22;8251;53.568;10.018;2022-08-21T11:47:05;36.30;31.50
16287;DHT22;8251;53.568;10.018;2022-08-21T11:49:49;35.70;33.20
16287;DHT22;8251;53.568;10.018;2022-08-21T11:52:25;35.50;33.60
16287;DHT22;8251;53.568;10.018;2022-08-21T11:54:57;35.50;34.70
16287;DHT22;8251;53.568;10.018;2022-08-21T11:57:30;35.70;34.80
16287;DHT22;8251;53.568;10.018;2022-08-21T12:00:04;35.70;33.80
16287;DHT22;8251;53.568;10.018;2022-08-21T12:02:36;35.90;34.50
16287;DHT22;8251;53.568;10.018;2022-08-21T12:05:06;36.00;34.10
16287;DHT22;8251;53.568;10.018;2022-08-21T12:07:37;36.10;34.90
16287;DHT22;8251;53.568;10.018;2022-08-21T12:10:07;36.20;34.10
16287;DHT22;8251;53.568;10.018;2022-08-21T12:12:37;36.30;34.00
16287;DHT22;8251;53.568;10.018;2022-08-21T12:15:24;36.30;32.00
16287;DHT22;8251;53.568;10.018;2022-08-21T12:17:55;36.30;31.80
16287;DHT22;8251;53.568;10.018;2022-08-21T12:20:34;36.20;33.10
16287;DHT22;8251;53.568;10.018;2022-08-21T12:23:16;36.20;33.90
16287;DHT22;8251;53.568;10.018;2022-08-21T12:25:45;36.10;34.00
16287;DHT22;8251;53.568;10.018;2022-08-21T12:28:20;35.80;34.20
16287;DHT22;8251;53.568;10.018;2022-08-21T12:30:48;35.40;34.20
16287;DHT22;8251;53.568;10.018;2022-08-21T12:33:22;35.10;35.20
16287;DHT22;8251;53.568;10.018;2022-08-21T12:35:52;34.80;35.50
16287;DHT22;8251;53.568;10.018;2022-08-21T12:38:26;34.50;35.80
16287;DHT22;8251;53.568;10.018;2022-08-21T12:40:56;34.40;36.80
16287;DHT22;8251;53.568;10.018;2022-08-21T12:43:27;34.40;36.90
16287;DHT22;8251;53.568;10.018;2022-08-21T12:45:55;34.60;36.30
16287;DHT22;8251;53.568;10.018;2022-08-21T12:48:29;34.60;35.10
16287;DHT22;8251;53.568;10.018;2022-08-21T12:51:05;34.70;35.70
16287;DHT22;8251;53.568;10.018;2022-08-21T12:53:42;34.80;36.00
16287;DHT22;8251;53.568;10.018;2022-08-21T12:56:13;34.80;35.40
16287;DHT22;8251;53.568;10.018;2022-08-21T12:58:43;34.90;35.50
16287;DHT22;8251;53.568;10.018;2022-08-21T13:01:19;35.00;35.80
16287;DHT22;8251;53.568;10.018;2022-08-21T13:03:51;35.10;35.10
16287;DHT22;8251;53.568;10.018;2022-08-21T13:06:20;35.10;35.30
16287;DHT22;8251;53.568;10.018;2022-08-21T13:08:57;35.00;35.30
16287;DHT22;8251;53.568;10.018;2022-08-21T13:11:34;35.00;35.20
16287;DHT22;8251;53.568;10.018;2022-08-21T13:14:06;35.00;35.80
16287;DHT22;8251;53.568;10.018;2022-08-21T13:16:40;35.00;35.00
16287;DHT22;8251;53.568;10.018;2022-08-21T13:19:07;34.90;34.10
16287;DHT22;8251;53.568;10.018;2022-08-21T13:21:41;34.90;34.00
16287;DHT22;8251;53.568;10.018;2022-08-21T13:24:18;34.90;33.70
16287;DHT22;8251;53.568;10.018;2022-08-21T13:26:47;34.80;33.30
16287;DHT22;8251;53.568;10.018;2022-08-21T13:29:16;34.70;34.40
16287;DHT22;8251;53.568;10.018;2022-08-21T13:31:48;34.60;34.30
16287;DHT22;8251;53.568;10.018;2022-08-21T13:34:17;34.50;34.30
16287;DHT22;8251;53.568;10.018;2022-08-21T13:36:46;34.30;35.00
16287;DHT22;8251;53.568;10.018;2022-08-21T13:39:18;34.10;34.50
16287;DHT22;8251;53.568;10.018;2022-08-21T13:41:49;34.10;34.30
16287;DHT22;8251;53.568;10.018;2022-08-21T13:44:19;33.90;34.40
16287;DHT22;8251;53.568;10.018;2022-08-21T13:46:48;33.80;36.10
16287;DHT22;8251;53.568;10.018;2022-08-21T13:49:23;33.70;36.30
16287;DHT22;8251;53.568;10.018;2022-08-21T13:52:00;33.60;36.00
16287;DHT22;8251;53.568;10.018;2022-08-21T13:54:35;33.50;36.20
16287;DHT22;8251;53.568;10.018;2022-08-21T13:57:04;33.40;36.40
16287;DHT22;8251;53.568;10.018;2022-08-21T13:59:33;33.30;34.90
16287;DHT22;8251;53.568;10.018;2022-08-21T14:02:08;33.10;36.20
16287;DHT22;8251;53.568;10.018;2022-08-21T14:04:43;33.00;37.30
16287;DHT22;8251;53.568;10.018;2022-08-21T14:07:17;32.90;37.70
16287;DHT22;8251;53.568;10.018;2022-08-21T14:09:47;32.90;36.80
16287;DHT22;8251;53.568;10.018;2022-08-21T14:12:16;32.80;36.20
16287;DHT22;8251;53.568;10.018;2022-08-21T14:14:44;32.70;36.70
16287;DHT22;8251;53.568;10.018;2022-08-21T14:17:14;32.50;36.60
16287;DHT22;8251;53.568;10.018;2022-08-21T14:19:52;32.40;37.80
16287;DHT22;8251;53.568;10.018;2022-08-21T14:22:36;32.30;38.00
16287;DHT22;8251;53.568;10.018;2022-08-21T14:25:06;32.30;38.30
16287;DHT22;8251;53.568;10.018;2022-08-21T14:27:42;32.20;36.90
16287;DHT22;8251;53.568;10.018;2022-08-21T14:30:12;32.10;37.30
16287;DHT22;8251;53.568;10.018;2022-08-21T14:32:41;32.00;37.80
16287;DHT22;8251;53.568;10.018;2022-08-21T14:35:11;31.90;37.60
16287;DHT22;8251;53.568;10.018;2022-08-21T14:37:42;31.80;37.60
16287;DHT22;8251;53.568;10.018;2022-08-21T14:40:12;31.80;38.40
16287;DHT22;8251;53.568;10.018;2022-08-21T14:42:41;31.70;39.50
16287;DHT22;8251;53.568;10.018;2022-08-21T14:45:13;31.60;38.60
16287;DHT22;8251;53.568;10.018;2022-08-21T14:47:41;31.60;38.40
16287;DHT22;8251;53.568;10.018;2022-08-21T14:50:10;31.60;38.40
16287;DHT22;8251;53.568;10.018;2022-08-21T14:52:37;31.60;38.90
16287;DHT22;8251;53.568;10.018;2022-08-21T14:55:06;31.60;38.40
16287;DHT22;8251;53.568;10.018;2022-08-21T14:57:37;31.70;38.70
16287;DHT22;8251;53.568;10.018;2022-08-21T15:00:06;31.60;37.80
16287;DHT22;8251;53.568;10.018;2022-08-21T15:02:34;31.60;37.80
16287;DHT22;8251;53.568;10.018;2022-08-21T15:05:04;31.50;38.50
16287;DHT22;8251;53.568;10.018;2022-08-21T15:07:37;31.40;38.40
16287;DHT22;8251;53.568;10.018;2022-08-21T15:10:09;31.20;38.60
16287;DHT22;8251;53.568;10.018;2022-08-21T15:12:40;31.10;38.80
16287;DHT22;8251;53.568;10.018;2022-08-21T15:15:08;31.00;39.60
16287;DHT22;8251;53.568;10.018;2022-08-21T15:17:35;30.80;39.40
16287;DHT22;8251;53.568;10.018;2022-08-21T15:20:03;30.70;39.00
16287;DHT22;8251;53.568;10.018;2022-08-21T15:22:31;30.70;39.50
16287;DHT22;8251;53.568;10.018;2022-08-21T15:24:59;30.70;39.40
16287;DHT22;8251;53.568;10.018;2022-08-21T15:27:27;30.70;39.50
16287;DHT22;8251;53.568;10.018;2022-08-21T15:29:56;30.90;39.40
16287;DHT22;8251;53.568;10.018;2022-08-21T15:32:25;30.90;39.80
16287;DHT22;8251;53.568;10.018;2022-08-21T15:34:54;31.00;39.30
16287;DHT22;8251;53.568;10.018;2022-08-21T15:37:22;30.90;39.90
16287;DHT22;8251;53.568;10.018;2022-08-21T15:39:50;30.90;40.40
16287;DHT22;8251;53.568;10.018;2022-08-21T15:42:18;30.90;40.10
16287;DHT22;8251;53.568;10.018;2022-08-21T15:44:46;30.90;40.00
16287;DHT22;8251;53.568;10.018;2022-08-21T15:47:17;30.90;40.10
16287;DHT22;8251;53.568;10.018;2022-08-21T15:49:45;30.90;39.30